Time;durP1;ratioP1;P1;durP2;ratioP2;P2;SDS_P1;SDS_P2;PMS_P1;PMS_P2;Temp;Humidity;BMP_temperature;BMP_pressure;BME280_temperature;BME280_humidity;BME280_pressure;Samples;Min_cycle;Max_cycle;Signal;HPM_P1;HPM_P2
2023/10/18 00:02:53;;;;;;;4.15;2.33;;;;;;;22.29;50.82;101140.78;4989972;28;20042;-58
2023/10/18 00:05:22;;;;;;;5.05;2.05;;;;;;;22.29;50.95;101140.78;4993493;28;20054;-58
2023/10/18 00:07:56;;;;;;;5.68;2.75;;;;;;;22.29;50.80;101135.38;4991400;28;20049;-58
2023/10/18 00:10:25;;;;;;;3.90;2.20;;;;;;;22.29;50.75;101130.00;4996812;28;20050;-59
2023/10/18 00:12:53;;;;;;;5.90;2.60;;;;;;;22.28;50.70;101130.97;4988521;28;20050;-60
2023/10/18 00:15:20;;;;;;;4.72;1.98;;;;;;;22.28;50.75;101126.44;4989298;28;20051;-60
2023/10/18 00:17:48;;;;;;;6.18;2.22;;;;;;;22.28;50.65;101118.34;4991440;28;20046;-60
2023/10/18 00:20:20;;;;;;;3.95;2.10;;;;;;;22.27;50.68;101121.16;4991184;28;20512;-60
2023/10/18 00:22:48;;;;;;;3.65;2.25;;;;;;;22.28;50.68;101133.66;4987788;28;20054;-60
2023/10/18 00:25:20;;;;;;;5.70;2.15;;;;;;;22.27;50.75;101134.66;4990063;28;20054;-60
2023/10/18 00:27:48;;;;;;;4.15;2.33;;;;;;;22.26;50.73;101128.41;4991011;28;20046;-60
2023/10/18 00:30:19;;;;;;;3.58;2.10;;;;;;;22.26;50.72;101127.56;4994327;28;20050;-59
2023/10/18 00:32:47;;;;;;;3.70;2.15;;;;;;;22.27;50.66;101131.97;4990939;28;20050;-59
2023/10/18 00:35:20;;;;;;;3.85;1.77;;;;;;;22.27;50.67;101130.09;4987067;28;20055;-60
2023/10/18 00:38:00;;;;;;;4.05;1.88;;;;;;;22.26;50.48;101122.19;4995195;28;20065;-60
2023/10/18 00:45:47;;;;;;;4.72;1.85;;;;;;;22.25;50.63;101123.19;4990638;28;20051;-57
2023/10/18 00:48:17;;;;;;;3.60;1.80;;;;;;;22.26;50.60;101127.56;4987783;28;20050;-58
2023/10/18 00:50:45;;;;;;;3.50;2.13;;;;;;;22.25;50.58;101121.31;4989131;28;20051;-58
2023/10/18 00:53:19;;;;;;;4.05;2.10;;;;;;;22.25;50.65;101124.03;4990677;28;20047;-58
2023/10/18 00:55:57;;;;;;;3.25;1.83;;;;;;;22.25;50.51;101123.19;4990505;28;20061;-58
2023/10/18 00:58:30;;;;;;;3.72;1.85;;;;;;;22.24;50.64;101114.25;4987352;28;20512;-58
2023/10/18 01:01:09;;;;;;;3.35;1.95;;;;;;;22.24;50.60;101111.53;4995829;28;20050;-59
2023/10/18 01:03:43;;;;;;;4.00;2.00;;;;;;;22.24;50.58;101110.66;4990287;28;20146;-60
2023/10/18 01:06:26;;;;;;;3.72;1.92;;;;;;;22.25;50.56;101107.00;4991366;28;20061;-60
2023/10/18 01:08:58;;;;;;;4.20;1.92;;;;;;;22.23;50.81;101101.72;4989056;28;20065;-58
2023/10/18 01:11:29;;;;;;;3.60;1.95;;;;;;;22.23;50.57;101101.72;4989915;28;20061;-58
2023/10/18 01:13:59;;;;;;;2.65;1.25;;;;;;;22.24;50.65;101097.19;4986437;28;20053;-58
2023/10/18 01:16:35;;;;;;;3.63;2.03;;;;;;;22.24;50.67;101102.56;4989453;28;20054;-58
2023/10/18 01:19:08;;;;;;;3.22;1.73;;;;;;;22.24;50.66;101094.47;4990444;28;20073;-58
2023/10/18 01:21:36;;;;;;;2.65;1.63;;;;;;;22.24;50.67;101099.88;4985338;28;20054;-58
2023/10/18 01:24:08;;;;;;;4.55;2.10;;;;;;;22.24;50.62;101091.78;4988131;28;20066;-58
2023/10/18 01:26:38;;;;;;;3.25;1.70;;;;;;;22.23;50.65;101090.09;4995488;28;20054;-58
2023/10/18 01:29:09;;;;;;;3.70;1.50;;;;;;;22.23;50.71;101090.09;4989633;28;20045;-58
2023/10/18 01:31:43;;;;;;;4.25;1.80;;;;;;;22.23;50.67;101076.59;4986411;28;20051;-58
2023/10/18 01:34:12;;;;;;;3.33;1.92;;;;;;;22.23;50.83;101079.31;4989664;28;20046;-58
2023/10/18 01:36:39;;;;;;;4.57;1.90;;;;;;;22.22;50.66;101075.75;4994053;28;20057;-58
2023/10/18 01:39:18;;;;;;;3.20;1.75;;;;;;;22.22;50.62;101081.16;4989070;28;20054;-58
2023/10/18 01:41:53;;;;;;;3.13;1.70;;;;;;;22.23;50.66;101068.53;4991289;28;20058;-58
2023/10/18 01:44:27;;;;;;;3.47;1.65;;;;;;;22.22;50.54;101067.66;4994143;28;20417;-58
2023/10/18 01:47:06;;;;;;;4.07;1.98;;;;;;;22.22;50.62;101064.97;4988243;28;20061;-58
2023/10/18 01:49:46;;;;;;;3.90;2.00;;;;;;;22.21;50.46;101076.75;4988361;28;20058;-58
2023/10/18 01:52:20;;;;;;;2.78;1.63;;;;;;;22.21;50.57;101068.69;4989838;28;20054;-58
2023/10/18 01:54:47;;;;;;;2.95;1.45;;;;;;;22.22;50.72;101075.75;4993335;28;20065;-58
2023/10/18 01:57:15;;;;;;;3.20;1.40;;;;;;;22.20;50.55;101070.53;4990057;28;20397;-58
2023/10/18 01:59:42;;;;;;;4.30;2.10;;;;;;;22.21;50.67;101066.81;4993269;28;20062;-59
2023/10/18 02:02:14;;;;;;;2.72;1.45;;;;;;;22.21;50.62;101061.44;4988107;28;20054;-60
2023/10/18 02:04:44;;;;;;;4.80;1.80;;;;;;;22.21;50.66;101058.72;4989482;28;20077;-60
2023/10/18 02:07:20;;;;;;;3.55;1.90;;;;;;;22.22;50.57;101059.59;4989677;28;20047;-59
2023/10/18 02:09:48;;;;;;;4.47;1.90;;;;;;;22.23;50.55;101068.53;4985939;28;20054;-59
2023/10/18 02:12:19;;;;;;;3.53;1.88;;;;;;;22.22;50.54;101067.66;4993722;28;20054;-59
2023/10/18 02:14:49;;;;;;;3.25;1.60;;;;;;;22.22;50.53;101070.38;4993695;28;20049;-60
2023/10/18 02:17:21;;;;;;;3.70;1.75;;;;;;;22.23;50.65;101063.13;4993739;28;20061;-60
2023/10/18 02:19:49;;;;;;;4.50;1.98;;;;;;;22.21;50.29;101058.72;4993381;28;20500;-58
2023/10/18 02:22:18;;;;;;;4.18;2.08;;;;;;;22.21;50.36;101058.72;4992988;28;20061;-58
2023/10/18 02:24:49;;;;;;;4.18;1.60;;;;;;;22.22;50.38;101059.59;4985785;28;20049;-58
2023/10/18 02:27:19;;;;;;;3.38;1.70;;;;;;;22.22;50.41;101046.09;4989050;28;20054;-58
2023/10/18 02:29:46;;;;;;;4.60;1.50;;;;;;;22.21;50.35;101049.81;4994233;28;20126;-58
2023/10/18 02:32:23;;;;;;;4.50;1.40;;;;;;;22.21;50.35;101052.50;4988630;28;20054;-58
2023/10/18 02:34:51;;;;;;;4.28;1.65;;;;;;;22.23;50.32;101055.03;4987906;28;20043;-58
2023/10/18 02:37:19;;;;;;;4.25;1.75;;;;;;;22.21;50.41;101058.72;4984587;28;20484;-58
2023/10/18 02:39:46;;;;;;;4.05;1.42;;;;;;;22.20;50.60;101059.75;4990366;28;20046;-60
2023/10/18 02:42:29;;;;;;;3.22;1.48;;;;;;;22.21;50.34;101050.66;4988610;28;20058;-59
2023/10/18 02:44:56;;;;;;;3.17;1.35;;;;;;;22.21;50.44;101052.50;4988348;28;20050;-60
2023/10/18 02:47:23;;;;;;;3.33;1.58;;;;;;;22.20;50.39;101053.47;4988545;28;20046;-60
2023/10/18 02:49:51;;;;;;;2.95;1.50;;;;;;;22.20;50.32;101057.03;4988481;28;20062;-59
2023/10/18 02:52:19;;;;;;;2.38;1.38;;;;;;;22.20;50.44;101054.34;4984777;28;20057;-60
2023/10/18 02:54:51;;;;;;;2.20;1.40;;;;;;;22.20;50.29;101062.44;4992679;28;20076;-59
2023/10/18 02:57:19;;;;;;;3.83;1.55;;;;;;;22.20;50.46;101058.84;4988385;28;20046;-60
2023/10/18 02:59:50;;;;;;;3.00;1.48;;;;;;;22.20;50.31;101061.56;4986959;28;20046;-58
2023/10/18 03:02:23;;;;;;;3.42;1.60;;;;;;;22.20;50.49;101050.78;4984873;28;20077;-58
2023/10/18 03:04:52;;;;;;;3.13;1.45;;;;;;;22.20;50.29;101059.75;4988430;28;20046;-58
2023/10/18 03:07:22;;;;;;;3.92;1.70;;;;;;;22.19;50.24;101060.72;4989007;28;20054;-58
2023/10/18 03:09:50;;;;;;;2.28;1.20;;;;;;;22.19;50.26;101059.88;4985472;28;20062;-60
2023/10/18 03:12:18;;;;;;;3.78;1.42;;;;;;;22.18;50.24;101053.63;4989078;28;20421;-60
2023/10/18 03:14:54;;;;;;;2.85;1.50;;;;;;;22.19;50.28;101058.00;4986583;28;20058;-59
2023/10/18 03:17:26;;;;;;;2.45;1.40;;;;;;;22.19;50.28;101057.16;4986021;28;20046;-60
2023/10/18 03:19:55;;;;;;;3.38;1.45;;;;;;;22.17;50.17;101049.22;4983887;28;20055;-60
2023/10/18 03:22:31;;;;;;;2.15;1.25;;;;;;;22.18;50.26;101053.63;4991973;28;20421;-59
2023/10/18 03:24:59;;;;;;;3.70;1.73;;;;;;;22.18;50.32;101048.22;4988259;28;20058;-60
2023/10/18 03:27:33;;;;;;;3.72;1.75;;;;;;;22.18;50.11;101042.84;4987599;28;20063;-59
2023/10/18 03:30:17;;;;;;;3.70;1.60;;;;;;;22.17;50.15;101043.84;4986135;28;20446;-58
2023/10/18 03:32:51;;;;;;;2.08;1.30;;;;;;;22.18;50.07;101042.00;4988074;28;20054;-58
2023/10/18 03:35:20;;;;;;;2.58;1.40;;;;;;;22.18;50.19;101050.09;4984356;28;20050;-58
2023/10/18 03:37:48;;;;;;;2.90;1.30;;;;;;;22.17;50.01;101049.22;4985593;28;20051;-58
2023/10/18 03:40:26;;;;;;;2.38;1.48;;;;;;;22.18;50.08;101042.00;4988025;28;20061;-59
2023/10/18 03:42:54;;;;;;;4.15;1.60;;;;;;;22.17;50.17;101051.09;4988163;28;20050;-60
2023/10/18 03:45:22;;;;;;;3.03;1.40;;;;;;;22.18;50.27;101031.22;4977846;28;20043;-60
2023/10/18 03:47:57;;;;;;;5.90;1.50;;;;;;;22.17;50.13;101032.22;4992021;28;20066;-60
2023/10/18 03:50:40;;;;;;;3.70;1.70;;;;;;;22.17;49.99;101035.75;4992209;28;20058;-59
2023/10/18 03:53:13;;;;;;;4.50;1.70;;;;;;;22.17;50.09;101035.75;4992297;28;20058;-60
2023/10/18 03:55:42;;;;;;;2.78;1.33;;;;;;;22.17;50.08;101032.22;4987027;28;20046;-60
2023/10/18 03:58:22;;;;;;;3.88;1.45;;;;;;;22.17;50.00;101032.22;4971220;28;20068;-60
2023/10/18 04:00:56;;;;;;;2.38;1.30;;;;;;;22.16;50.04;101031.38;4991454;28;20497;-60
2023/10/18 04:03:29;;;;;;;2.88;1.38;;;;;;;22.16;49.91;101039.44;4984638;28;20051;-60
2023/10/18 04:06:21;;;;;;;2.70;1.55;;;;;;;22.16;50.04;101036.75;4987871;28;20046;-60
2023/10/18 04:08:48;;;;;;;3.60;1.40;;;;;;;22.16;50.04;101039.44;4990341;28;20417;-60
2023/10/18 04:11:24;;;;;;;3.92;1.45;;;;;;;22.15;49.92;101035.03;4988810;28;20046;-60
2023/10/18 04:13:52;;;;;;;6.10;1.88;;;;;;;22.15;50.09;101037.72;4991489;28;20069;-60
2023/10/18 04:16:28;;;;;;;2.70;1.20;;;;;;;22.15;49.99;101032.34;4991106;28;20053;-60
2023/10/18 04:18:56;;;;;;;2.90;1.50;;;;;;;22.16;49.99;101035.88;4987948;28;20098;-58
2023/10/18 04:21:27;;;;;;;2.67;1.50;;;;;;;22.15;49.88;101037.72;4982593;28;20066;-58
2023/10/18 04:23:56;;;;;;;2.25;1.20;;;;;;;22.15;50.01;101037.72;4991264;28;20042;-58
2023/10/18 04:26:26;;;;;;;2.15;1.10;;;;;;;22.16;50.02;101041.28;4989183;28;20046;-58
2023/10/18 04:29:01;;;;;;;2.95;1.75;;;;;;;22.15;49.98;101042.28;4993892;28;20050;-59
2023/10/18 04:31:29;;;;;;;2.97;1.15;;;;;;;22.15;50.00;101039.56;4991014;28;20531;-60
2023/10/18 04:33:57;;;;;;;3.58;1.48;;;;;;;22.15;49.92;101034.19;4996392;28;20049;-60
2023/10/18 04:36:25;;;;;;;2.55;1.20;;;;;;;22.15;49.91;101031.50;4991022;28;20057;-60
2023/10/18 04:38:53;;;;;;;2.63;1.23;;;;;;;22.15;50.04;101023.41;4991590;28;20375;-60
2023/10/18 04:44:07;;;;;;;2.78;1.20;;;;;;;22.14;49.98;101030.63;4990639;28;20053;-60
2023/10/18 04:46:36;;;;;;;3.05;1.50;;;;;;;22.14;49.90;101033.34;4987575;28;20057;-60
2023/10/18 04:54:08;;;;;;;2.85;1.35;;;;;;;22.15;49.92;101026.09;4987237;28;20054;-60
2023/10/18 04:56:38;;;;;;;2.92;1.48;;;;;;;22.15;49.88;101028.78;4989421;28;20054;-60
2023/10/18 05:04:29;;;;;;;4.85;1.85;;;;;;;22.16;50.24;101041.28;4988029;28;20043;-60
2023/10/18 05:07:21;;;;;;;3.58;1.48;;;;;;;22.16;50.50;101046.66;4990267;28;20058;-60
2023/10/18 05:09:55;;;;;;;3.72;2.13;;;;;;;22.15;50.55;101036.88;4987083;28;20065;-59
2023/10/18 05:15:16;;;;;;;3.50;1.63;;;;;;;22.15;50.43;101037.72;4990269;28;20046;-60
2023/10/18 05:17:44;;;;;;;4.40;1.92;;;;;;;22.14;50.56;101030.63;5003922;28;20054;-60
2023/10/18 05:22:59;;;;;;;3.42;2.00;;;;;;;22.15;50.71;101031.50;4990088;28;20432;-60
2023/10/18 05:25:30;;;;;;;5.03;1.90;;;;;;;22.15;50.40;101037.72;4991607;28;20073;-60
2023/10/18 05:28:15;;;;;;;5.65;1.90;;;;;;;22.14;50.57;101030.63;4987485;28;20062;-60
2023/10/18 05:36:29;;;;;;;3.40;1.83;;;;;;;22.14;50.49;101025.25;4981019;28;20069;-58
2023/10/18 05:39:27;;;;;;;3.90;1.77;;;;;;;22.15;50.39;101032.34;4989704;28;20057;-59
2023/10/18 05:42:03;;;;;;;4.90;2.05;;;;;;;22.13;50.50;101039.75;4989714;28;20062;-60
2023/10/18 05:44:31;;;;;;;4.97;1.55;;;;;;;22.14;50.46;101040.59;4989728;28;20038;-60
2023/10/18 05:46:59;;;;;;;4.35;1.60;;;;;;;22.14;50.36;101040.59;4988204;28;20507;-60
2023/10/18 05:49:28;;;;;;;3.95;1.80;;;;;;;22.13;50.50;101045.13;4985759;28;20047;-58
2023/10/18 05:54:39;;;;;;;3.75;1.58;;;;;;;22.13;50.50;101055.91;4989189;28;20047;-58
2023/10/18 05:57:07;;;;;;;2.97;1.77;;;;;;;22.13;50.47;101061.31;4991652;28;20062;-58
2023/10/18 05:59:35;;;;;;;4.45;1.75;;;;;;;22.13;50.46;101055.91;4988024;28;20050;-58
2023/10/18 06:02:13;;;;;;;4.05;1.85;;;;;;;22.12;50.62;101051.50;4989027;28;20500;-58
2023/10/18 06:04:43;;;;;;;4.53;1.90;;;;;;;22.13;50.50;101053.22;4987931;28;20046;-58
2023/10/18 06:07:11;;;;;;;4.30;1.77;;;;;;;22.12;50.43;101050.63;4985829;28;20054;-58
2023/10/18 06:10:13;;;;;;;4.13;1.98;;;;;;;22.11;50.44;101044.38;4989339;28;20057;-59
2023/10/18 06:12:30;;;;;;;4.30;2.08;;;;;;;22.12;50.46;101046.09;4988362;28;20046;-60
2023/10/18 06:15:10;;;;;;;2.97;1.67;;;;;;;22.11;50.43;101052.47;4982371;28;20051;-60
2023/10/18 06:17:50;;;;;;;3.50;1.65;;;;;;;22.11;50.39;101052.47;4989374;28;20050;-60
2023/10/18 06:20:30;;;;;;;4.47;2.05;;;;;;;22.12;50.56;101069.50;4988489;28;20057;-60
2023/10/18 06:25:45;;;;;;;4.20;1.80;;;;;;;22.11;50.56;101071.34;4989118;28;20408;-60
2023/10/18 06:28:19;;;;;;;5.85;1.85;;;;;;;22.10;50.36;101066.94;4988101;28;20053;-60
2023/10/18 06:30:52;;;;;;;3.97;1.55;;;;;;;22.10;50.32;101075.03;4985385;28;20058;-58
2023/10/18 06:33:21;;;;;;;2.90;1.77;;;;;;;22.09;50.39;101076.03;4988550;28;20519;-58
2023/10/18 06:35:52;;;;;;;4.28;1.65;;;;;;;22.10;50.50;101076.88;4988657;28;20401;-58
2023/10/18 06:38:24;;;;;;;3.35;2.00;;;;;;;22.10;50.35;101079.59;4985331;28;20054;-58
2023/10/18 06:41:00;;;;;;;3.42;1.70;;;;;;;22.10;50.38;101084.97;4987815;28;20047;-59
2023/10/18 06:43:33;;;;;;;4.10;2.13;;;;;;;22.09;50.40;101080.59;4988589;28;20046;-60
2023/10/18 06:46:04;;;;;;;3.25;1.58;;;;;;;22.08;50.46;101079.75;4986872;28;20050;-60
2023/10/18 06:48:31;;;;;;;3.85;1.73;;;;;;;22.08;50.38;101078.84;4986724;28;20062;-60
2023/10/18 06:50:59;;;;;;;3.15;1.63;;;;;;;22.08;50.33;101085.13;4988658;28;20054;-58
2023/10/18 06:53:27;;;;;;;4.22;1.92;;;;;;;22.09;50.37;101091.38;4988132;28;20053;-63
2023/10/18 06:56:06;;;;;;;5.68;2.25;;;;;;;22.10;50.36;101090.38;4986255;28;20377;-63
2023/10/18 07:01:08;;;;;;;2.85;1.27;;;;;;;22.14;50.26;101095.34;4988360;28;20405;-61
2023/10/18 07:03:42;;;;;;;3.00;1.95;;;;;;;22.13;50.27;101088.28;4988629;28;20489;-61
2023/10/18 07:06:23;;;;;;;3.45;1.35;;;;;;;22.13;50.17;101088.28;4991698;28;20038;-61
2023/10/18 07:08:51;;;;;;;3.55;1.75;;;;;;;22.12;50.28;101094.63;4988165;28;20065;-61
2023/10/18 07:11:19;;;;;;;3.47;1.92;;;;;;;22.12;50.29;101107.25;4987973;28;20121;-56
2023/10/18 07:14:00;;;;;;;2.90;1.70;;;;;;;22.17;50.18;101113.94;4984664;28;20050;-56
2023/10/18 07:21:46;;;;;;;4.03;3.10;;;;;;;22.20;47.68;101102.88;4989126;28;20062;-62
2023/10/18 07:24:13;;;;;;;4.75;3.17;;;;;;;22.20;47.26;101097.50;4987917;28;20046;-57
2023/10/18 07:26:40;;;;;;;6.70;3.60;;;;;;;22.20;47.24;101105.59;4988713;28;20057;-57
2023/10/18 07:29:08;;;;;;;6.88;3.33;;;;;;;22.20;47.12;101099.31;4986373;28;20054;-55
2023/10/18 07:31:39;;;;;;;8.15;2.72;;;;;;;22.23;47.45;101095.50;4984607;28;20046;-57
2023/10/18 07:34:08;;;;;;;4.25;3.05;;;;;;;22.23;47.30;101103.56;4987922;28;20050;-56
2023/10/18 07:36:38;;;;;;;5.40;3.35;;;;;;;22.22;47.12;101113.53;4988015;28;20047;-56
2023/10/18 07:39:06;;;;;;;5.13;3.28;;;;;;;22.20;46.67;101100.19;4986061;28;20117;-59
2023/10/18 07:41:34;;;;;;;5.78;3.50;;;;;;;22.19;46.45;101111.94;4984598;28;20058;-57
2023/10/18 07:44:05;;;;;;;4.90;3.47;;;;;;;22.19;46.28;101101.16;4989343;28;20492;-56
2023/10/18 07:46:40;;;;;;;5.93;4.05;;;;;;;22.19;46.32;101111.09;4991862;28;20050;-57
2023/10/18 07:49:15;;;;;;;4.70;3.35;;;;;;;22.17;46.29;101100.47;4986900;28;20482;-58
2023/10/18 07:51:59;;;;;;;4.57;3.17;;;;;;;22.15;46.47;101091.66;4990808;28;20061;-57
2023/10/18 07:54:26;;;;;;;7.88;3.33;;;;;;;22.15;46.30;101090.81;4991488;28;20050;-58
2023/10/18 07:56:54;;;;;;;7.53;3.28;;;;;;;22.15;46.29;101102.44;4987555;28;20058;-58
2023/10/18 07:59:31;;;;;;;7.93;3.75;;;;;;;22.13;46.18;101099.06;4989172;28;20377;-55
2023/10/18 08:02:09;;;;;;;5.93;3.10;;;;;;;22.11;45.81;101106.38;4991561;28;20218;-57
2023/10/18 08:04:37;;;;;;;4.43;2.92;;;;;;;22.07;45.69;101106.81;4990107;28;20050;-58
2023/10/18 08:07:10;;;;;;;4.55;3.17;;;;;;;22.03;45.53;101105.41;4987547;28;20066;-56
2023/10/18 08:09:42;;;;;;;3.60;2.53;;;;;;;22.02;45.46;101107.25;4991528;28;20057;-60
2023/10/18 08:12:44;;;;;;;4.73;2.77;;;;;;;22.01;45.62;101110.09;4991445;28;20050;-60
2023/10/18 08:15:13;;;;;;;7.43;3.00;;;;;;;21.99;46.01;101110.22;4990344;28;20296;-60
2023/10/18 08:17:44;;;;;;;4.72;2.60;;;;;;;22.03;46.40;101114.34;4991199;28;20054;-59
2023/10/18 08:22:50;;;;;;;4.13;2.60;;;;;;;22.10;46.49;101112.78;4987171;28;20417;-58
2023/10/18 08:25:26;;;;;;;5.25;2.67;;;;;;;22.14;46.72;101108.84;4982655;28;20046;-60
2023/10/18 08:27:54;;;;;;;3.95;2.40;;;;;;;22.17;46.67;101102.31;4991192;28;20050;-57
2023/10/18 08:31:03;;;;;;;4.72;2.38;;;;;;;22.19;46.76;101103.84;4988605;28;20519;-58
2023/10/18 08:33:12;;;;;;;5.80;2.75;;;;;;;22.21;46.50;101093.78;4982387;28;20069;-63
2023/10/18 08:35:39;;;;;;;3.58;2.40;;;;;;;22.21;46.45;101091.09;4986634;28;20419;-62
2023/10/18 08:38:07;;;;;;;3.88;2.33;;;;;;;22.23;46.51;101093.63;4988922;28;20448;-59
2023/10/18 08:40:37;;;;;;;3.92;2.38;;;;;;;22.24;46.50;101098.06;4987217;28;20051;-56
2023/10/18 08:43:15;;;;;;;5.15;2.45;;;;;;;22.26;46.38;101097.91;4990646;28;20051;-58
2023/10/18 08:45:49;;;;;;;3.90;2.47;;;;;;;22.26;46.57;101096.06;4989796;28;20050;-57
2023/10/18 08:48:38;;;;;;;3.78;2.47;;;;;;;22.28;46.40;101101.28;4991842;28;20073;-54
2023/10/18 08:51:06;;;;;;;3.40;2.25;;;;;;;22.27;46.37;101100.44;4983622;28;20058;-56
2023/10/18 08:53:40;;;;;;;3.30;2.40;;;;;;;22.29;46.45;101108.41;4994534;28;20061;-55
2023/10/18 08:56:08;;;;;;;5.20;2.20;;;;;;;22.28;46.38;101107.56;4986988;28;20496;-55
2023/10/18 08:58:37;;;;;;;5.15;2.63;;;;;;;22.29;46.42;101113.81;4989347;28;20072;-50
2023/10/18 09:01:05;;;;;;;7.72;3.08;;;;;;;22.29;46.53;101106.56;4990496;28;20386;-62
2023/10/18 09:03:35;;;;;;;3.63;2.20;;;;;;;22.31;46.47;101106.41;4989602;28;20049;-58
2023/10/18 09:06:04;;;;;;;3.72;2.50;;;;;;;22.30;46.61;101107.41;4987015;28;20050;-59
2023/10/18 09:08:35;;;;;;;4.47;2.70;;;;;;;22.29;46.66;101109.25;4990205;28;20493;-58
2023/10/18 09:11:22;;;;;;;3.78;2.20;;;;;;;22.28;46.51;101107.56;4989992;28;20054;-61
2023/10/18 09:14:10;;;;;;;3.75;2.30;;;;;;;22.25;46.85;101088.97;4986673;28;20047;-57
2023/10/18 09:16:43;;;;;;;4.30;2.38;;;;;;;22.24;47.10;101102.56;4983386;28;20050;-57
2023/10/18 09:19:10;;;;;;;4.70;2.50;;;;;;;22.24;47.00;101102.56;4990043;28;20058;-58
2023/10/18 09:21:57;;;;;;;5.97;2.60;;;;;;;22.25;46.76;101096.22;4977426;28;20051;-59
2023/10/18 09:24:30;;;;;;;3.03;2.13;;;;;;;22.25;46.76;101102.44;4982466;28;20050;-58
2023/10/18 09:27:00;;;;;;;3.80;2.58;;;;;;;22.26;46.73;101092.50;4989872;28;20046;-59
2023/10/18 09:29:31;;;;;;;3.97;2.30;;;;;;;22.27;46.69;101096.91;4986502;28;20054;-60
2023/10/18 09:32:03;;;;;;;3.95;2.33;;;;;;;22.27;46.51;101086.97;4988713;28;20058;-57
2023/10/18 09:34:38;;;;;;;5.00;2.90;;;;;;;22.29;46.63;101097.63;4989966;28;20050;-61
2023/10/18 09:37:12;;;;;;;3.65;2.65;;;;;;;22.29;46.68;101086.84;4992330;28;20050;-62
2023/10/18 09:39:43;;;;;;;4.45;2.40;;;;;;;22.29;46.77;101081.44;4987096;28;20498;-56
2023/10/18 09:42:15;;;;;;;3.72;2.20;;;;;;;22.29;46.73;101101.16;4989569;28;20054;-55
2023/10/18 09:44:44;;;;;;;4.15;2.42;;;;;;;22.29;46.75;101094.94;4989341;28;20051;-57
2023/10/18 09:47:12;;;;;;;4.30;2.88;;;;;;;22.31;46.65;101109.09;4985728;28;20073;-56
2023/10/18 09:49:43;;;;;;;3.35;2.15;;;;;;;22.29;47.24;101089.53;4987954;28;20047;-56
2023/10/18 09:52:13;;;;;;;3.90;2.92;;;;;;;22.25;46.72;101090.81;4989606;28;20492;-56
2023/10/18 09:54:52;;;;;;;4.35;3.00;;;;;;;22.16;46.37;101090.69;4991947;28;20515;-56
2023/10/18 09:57:23;;;;;;;5.38;3.58;;;;;;;22.08;46.28;101089.66;4986565;28;20390;-56
2023/10/18 09:59:55;;;;;;;4.85;3.90;;;;;;;22.02;46.41;101088.38;4989344;28;20049;-62
2023/10/18 10:02:24;;;;;;;4.60;3.25;;;;;;;21.98;46.52;101082.44;4989235;28;20050;-63
2023/10/18 10:04:54;;;;;;;7.25;3.10;;;;;;;21.97;46.47;101080.72;4985299;28;20062;-62
2023/10/18 10:07:28;;;;;;;5.60;3.00;;;;;;;21.96;46.54;101080.88;4986871;28;20043;-62
2023/10/18 10:10:20;;;;;;;6.45;3.50;;;;;;;21.96;46.68;101083.59;4989539;28;20073;-56
2023/10/18 10:12:45;;;;;;;4.07;3.00;;;;;;;21.94;46.70;101086.41;4985319;28;20047;-56
2023/10/18 10:15:17;;;;;;;5.05;3.13;;;;;;;21.96;46.67;101088.97;4988095;28;20054;-56
2023/10/18 10:17:58;;;;;;;5.68;3.33;;;;;;;21.94;46.52;101082.84;4993174;28;20050;-53
2023/10/18 10:20:32;;;;;;;4.43;3.05;;;;;;;21.96;46.57;101078.19;4986494;28;20054;-53
2023/10/18 10:23:04;;;;;;;4.60;3.30;;;;;;;21.99;46.64;101080.56;4986434;28;20079;-51
2023/10/18 10:25:31;;;;;;;3.95;2.75;;;;;;;22.03;46.66;101067.66;4988811;28;20053;-57
2023/10/18 10:29:09;;;;;;;4.50;2.95;;;;;;;22.06;46.64;101062.00;4990624;28;20042;-59
2023/10/18 10:31:49;;;;;;;3.80;2.72;;;;;;;22.07;46.56;101053.75;4988481;28;20053;-59
2023/10/18 10:34:24;;;;;;;3.72;2.75;;;;;;;22.09;46.82;101046.38;4984943;28;20062;-57
2023/10/18 10:37:08;;;;;;;4.05;2.40;;;;;;;22.11;46.80;101059.69;4987172;28;20063;-56
2023/10/18 10:39:44;;;;;;;3.85;2.63;;;;;;;22.13;46.75;101055.06;4988573;28;20050;-59
2023/10/18 10:42:19;;;;;;;4.15;2.70;;;;;;;22.13;46.77;101058.59;4977346;28;20062;-58
2023/10/18 10:44:57;;;;;;;3.58;2.28;;;;;;;22.15;46.87;101053.06;4987256;28;20058;-58
2023/10/18 10:47:31;;;;;;;4.22;2.92;;;;;;;22.15;46.84;101064.69;4992499;28;20505;-58
2023/10/18 10:50:00;;;;;;;3.97;2.75;;;;;;;22.17;46.83;101056.47;4990152;28;20053;-59
2023/10/18 10:52:29;;;;;;;4.15;2.88;;;;;;;22.16;46.71;101063.72;4985810;28;20050;-58
2023/10/18 10:55:17;;;;;;;6.93;2.65;;;;;;;22.14;47.16;101054.91;4988250;28;20042;-58
2023/10/18 10:57:46;;;;;;;4.68;2.53;;;;;;;22.14;47.24;101054.06;4986488;28;20047;-58
2023/10/18 11:03:06;;;;;;;5.68;2.75;;;;;;;22.17;47.05;101040.28;4988290;28;20050;-58
2023/10/18 11:05:37;;;;;;;4.90;2.90;;;;;;;22.17;47.09;101037.59;4986954;28;20046;-60
2023/10/18 11:08:05;;;;;;;3.40;2.35;;;;;;;22.17;47.00;101027.66;4984937;28;20046;-58
2023/10/18 11:10:39;;;;;;;4.43;2.88;;;;;;;22.16;47.06;101020.56;4988494;28;20053;-60
2023/10/18 11:13:08;;;;;;;4.07;2.83;;;;;;;22.12;47.19;101011.03;4988064;28;20137;-60
2023/10/18 11:15:36;;;;;;;5.35;2.85;;;;;;;22.10;47.38;101018.41;4985063;28;20062;-60
2023/10/18 11:18:19;;;;;;;4.43;2.50;;;;;;;22.08;47.50;101017.72;4986029;28;20050;-60
2023/10/18 11:20:49;;;;;;;3.33;2.42;;;;;;;22.06;47.57;101016.16;4992149;28;20054;-60
2023/10/18 11:23:16;;;;;;;4.57;2.92;;;;;;;22.05;47.47;101009.91;4990500;28;20050;-60
2023/10/18 11:25:45;;;;;;;3.47;2.58;;;;;;;22.04;47.74;101007.34;4988516;28;20047;-60
2023/10/18 11:28:20;;;;;;;4.63;2.40;;;;;;;22.03;47.78;100998.41;4983653;28;20043;-60
2023/10/18 11:30:50;;;;;;;4.40;2.72;;;;;;;22.02;47.74;100996.72;4992089;28;20053;-60
2023/10/18 11:33:31;;;;;;;4.47;2.55;;;;;;;22.01;47.74;100992.34;4988991;28;20057;-61
2023/10/18 11:36:02;;;;;;;3.97;2.45;;;;;;;22.01;47.84;100996.88;4991549;28;20057;-60
2023/10/18 11:38:34;;;;;;;3.35;2.35;;;;;;;22.00;47.90;100996.03;4991821;28;20043;-60
2023/10/18 11:41:09;;;;;;;4.40;2.55;;;;;;;22.00;47.91;100990.66;4990045;28;20069;-60
2023/10/18 11:43:40;;;;;;;4.85;3.15;;;;;;;22.01;48.10;100994.19;4989240;28;20054;-60
2023/10/18 11:46:08;;;;;;;4.95;2.97;;;;;;;21.99;48.22;100991.63;4991828;28;20042;-60
2023/10/18 11:48:37;;;;;;;6.05;4.07;;;;;;;21.97;48.24;100983.69;4991432;28;20061;-60
2023/10/18 11:51:06;;;;;;;5.97;4.10;;;;;;;21.91;47.43;100980.72;4987741;28;20051;-55
2023/10/18 11:53:35;;;;;;;7.20;4.45;;;;;;;21.83;46.73;100981.44;4989634;28;20051;-58
2023/10/18 11:56:09;;;;;;;7.07;4.90;;;;;;;21.79;46.83;100979.16;4991244;28;20042;-58
2023/10/18 11:58:37;;;;;;;7.47;4.60;;;;;;;21.78;47.23;100972.09;4990763;28;20050;-58
2023/10/18 12:01:18;;;;;;;8.10;5.20;;;;;;;21.78;48.07;100970.25;4988207;28;20046;-58
2023/10/18 12:03:48;;;;;;;7.40;4.78;;;;;;;21.79;48.45;100969.25;4984474;28;20050;-58
2023/10/18 12:06:20;;;;;;;8.30;3.95;;;;;;;21.81;48.81;100969.97;4991394;28;20058;-58
2023/10/18 12:09:25;;;;;;;6.60;4.55;;;;;;;21.83;48.80;100972.50;4988151;28;20050;-58
2023/10/18 12:11:39;;;;;;;5.65;4.32;;;;;;;21.87;48.99;100965.81;4991329;28;20409;-59
2023/10/18 12:14:08;;;;;;;7.40;3.95;;;;;;;21.91;49.00;100976.16;4991159;28;20424;-58
2023/10/18 12:16:36;;;;;;;8.90;4.43;;;;;;;21.97;49.10;100966.66;4987942;28;20039;-59
2023/10/18 12:19:06;;;;;;;7.63;4.05;;;;;;;22.01;48.95;100962.69;4992110;28;20047;-58
2023/10/18 12:21:34;;;;;;;7.13;4.18;;;;;;;22.04;48.99;100957.00;4990996;28;20170;-58
2023/10/18 12:24:04;;;;;;;10.95;4.72;;;;;;;22.08;48.96;100957.53;4991013;28;20053;-58
2023/10/18 12:26:34;;;;;;;7.82;3.90;;;;;;;22.09;48.93;100952.00;4987180;28;20051;-57
2023/10/18 12:29:04;;;;;;;6.88;4.22;;;;;;;22.13;48.92;100948.06;4988985;28;20050;-58
2023/10/18 12:31:39;;;;;;;5.57;4.10;;;;;;;22.13;48.89;100948.06;4991004;28;20054;-58
2023/10/18 12:34:09;;;;;;;8.13;4.10;;;;;;;22.15;48.69;100945.19;4989020;28;20050;-58
2023/10/18 12:36:39;;;;;;;6.25;4.28;;;;;;;22.14;48.83;100936.28;4988056;28;20053;-58
2023/10/18 12:39:09;;;;;;;6.88;3.30;;;;;;;22.10;48.79;100932.13;4991176;28;20039;-59